Time;durP1;ratioP1;P1;durP2;ratioP2;P2;SDS_P1;SDS_P2;PMS_P1;PMS_P2;Temp;Humidity;BMP_temperature;BMP_pressure;BME280_temperature;BME280_humidity;BME280_pressure;Samples;Min_cycle;Max_cycle;Signal;HPM_P1;HPM_P2
2022/04/19 00:00:05;;;;;;;1.63;0.88;;;18.90;42.30;;;;;;5129456;27;45358;-79
2022/04/19 00:02:32;;;;;;;1.15;0.93;;;18.90;42.20;;;;;;5130309;27;45252;-79
2022/04/19 00:05:00;;;;;;;1.35;0.77;;;18.90;42.20;;;;;;5125779;27;45112;-79
2022/04/19 00:07:27;;;;;;;1.15;0.77;;;18.90;42.30;;;;;;5129069;27;45120;-79
2022/04/19 00:09:54;;;;;;;1.23;0.95;;;18.90;42.10;;;;;;5129478;27;45395;-79
2022/04/19 00:12:22;;;;;;;1.58;0.93;;;18.90;42.20;;;;;;5126015;27;45460;-79
2022/04/19 00:14:49;;;;;;;1.20;0.90;;;18.90;42.00;;;;;;5109316;27;45160;-79
2022/04/19 00:17:16;;;;;;;0.85;0.70;;;18.90;42.00;;;;;;5127091;27;45426;-79
2022/04/19 00:19:43;;;;;;;1.92;1.02;;;18.90;42.00;;;;;;5115555;27;45254;-79
2022/04/19 00:22:12;;;;;;;1.38;0.93;;;18.90;42.00;;;;;;5111420;27;46220;-79
2022/04/19 00:24:39;;;;;;;1.60;0.90;;;18.90;41.90;;;;;;5129229;27;45302;-79
2022/04/19 00:27:06;;;;;;;1.02;0.93;;;18.90;41.80;;;;;;5119650;27;45197;-79
2022/04/19 00:29:32;;;;;;;0.93;0.85;;;18.90;41.80;;;;;;5125550;27;45369;-79
2022/04/19 00:31:59;;;;;;;1.23;0.90;;;18.90;41.80;;;;;;5124849;27;46135;-79
2022/04/19 00:34:26;;;;;;;1.48;0.80;;;19.00;42.10;;;;;;5128865;27;45326;-79
2022/04/19 00:36:53;;;;;;;1.98;0.98;;;18.90;42.10;;;;;;5130294;27;45187;-79
2022/04/19 00:39:21;;;;;;;1.20;0.70;;;18.90;42.00;;;;;;5125110;27;45148;-79
2022/04/19 00:41:48;;;;;;;1.80;0.88;;;18.90;41.90;;;;;;5108609;27;45288;-79
2022/04/19 00:44:15;;;;;;;1.63;1.00;;;18.90;42.00;;;;;;5124697;27;45309;-79
2022/04/19 00:46:42;;;;;;;1.55;0.80;;;18.90;42.10;;;;;;5113408;27;45187;-79
2022/04/19 00:49:08;;;;;;;1.10;0.88;;;18.90;42.10;;;;;;5127605;27;45377;-79
2022/04/19 00:51:36;;;;;;;1.02;0.70;;;18.90;42.20;;;;;;5129229;27;47093;-79
2022/04/19 00:54:04;;;;;;;1.35;0.90;;;18.90;42.20;;;;;;5127971;27;45217;-79
2022/04/19 00:56:32;;;;;;;1.58;0.82;;;18.90;42.10;;;;;;5119130;27;45230;-79
2022/04/19 00:58:59;;;;;;;1.13;0.70;;;18.90;42.20;;;;;;5123611;27;45401;-79
2022/04/19 01:01:27;;;;;;;3.13;1.13;;;18.90;42.10;;;;;;5121964;27;45232;-79
2022/04/19 01:03:54;;;;;;;1.77;0.90;;;18.90;42.20;;;;;;5127020;27;45250;-79
2022/04/19 01:06:20;;;;;;;1.15;0.85;;;18.90;42.30;;;;;;5129403;27;45308;-79
2022/04/19 01:08:48;;;;;;;2.65;0.90;;;18.90;42.30;;;;;;5128375;27;46276;-79
2022/04/19 01:14:02;;;;;;;0.90;0.70;;;18.90;42.30;;;;;;5126514;27;45185;-79
2022/04/19 01:16:29;;;;;;;1.13;0.70;;;18.90;42.30;;;;;;5126827;27;45680;-80
2022/04/19 01:18:56;;;;;;;1.27;1.00;;;18.90;42.50;;;;;;5122097;27;45350;-79
2022/04/19 01:21:27;;;;;;;1.23;0.82;;;18.90;42.50;;;;;;5124560;27;45245;-79
2022/04/19 01:23:55;;;;;;;1.10;0.90;;;18.90;42.40;;;;;;5127448;27;45752;-79
2022/04/19 01:26:22;;;;;;;0.73;0.63;;;18.90;42.50;;;;;;5129199;27;45388;-79
2022/04/19 01:28:49;;;;;;;1.88;0.85;;;18.90;42.50;;;;;;5117898;27;45215;-79
2022/04/19 01:31:16;;;;;;;1.42;1.05;;;18.90;42.60;;;;;;5127015;27;45201;-79
2022/04/19 01:33:42;;;;;;;0.98;0.70;;;18.90;42.60;;;;;;5121526;27;45188;-79
2022/04/19 01:36:10;;;;;;;1.50;0.88;;;18.90;42.60;;;;;;5110901;27;45188;-79
2022/04/19 01:38:37;;;;;;;2.72;1.05;;;18.90;42.70;;;;;;5128136;27;45514;-79
2022/04/19 01:41:05;;;;;;;0.90;0.70;;;18.90;43.90;;;;;;5128523;27;47275;-79
2022/04/19 01:43:32;;;;;;;1.10;1.00;;;18.90;42.50;;;;;;5119174;27;45194;-79
2022/04/19 01:45:58;;;;;;;1.33;0.90;;;18.90;42.40;;;;;;5130240;27;45223;-79
2022/04/19 01:48:25;;;;;;;1.25;0.80;;;18.90;42.50;;;;;;5130877;27;45217;-79
2022/04/19 01:50:52;;;;;;;1.35;0.82;;;18.90;42.40;;;;;;5122504;27;45282;-79
2022/04/19 01:53:19;;;;;;;1.48;0.90;;;18.90;42.40;;;;;;5111849;27;45181;-79
2022/04/19 01:55:46;;;;;;;2.17;1.08;;;18.90;42.30;;;;;;5111884;27;45141;-79
2022/04/19 01:58:17;;;;;;;1.27;0.88;;;18.90;42.40;;;;;;5111766;27;45465;-79
2022/04/19 02:00:43;;;;;;;2.15;1.08;;;18.90;42.20;;;;;;5117384;27;48116;-79
2022/04/19 02:03:10;;;;;;;1.42;0.90;;;18.90;42.20;;;;;;5127566;27;45180;-79
2022/04/19 02:05:37;;;;;;;1.15;1.02;;;18.90;42.30;;;;;;5130970;27;45213;-79
2022/04/19 02:08:04;;;;;;;1.50;1.08;;;18.90;42.30;;;;;;5138452;27;45447;-79
2022/04/19 02:10:31;;;;;;;1.65;0.98;;;18.90;42.30;;;;;;5137749;27;47150;-79
2022/04/19 02:12:58;;;;;;;1.73;0.90;;;18.90;42.40;;;;;;5128284;27;45147;-79
2022/04/19 02:15:26;;;;;;;1.63;0.93;;;18.80;42.40;;;;;;5132383;27;45265;-79
2022/04/19 02:17:53;;;;;;;1.05;0.93;;;18.90;42.50;;;;;;5132244;27;45245;-79
2022/04/19 02:20:20;;;;;;;0.98;0.80;;;18.90;42.50;;;;;;5128256;27;45248;-79
2022/04/19 02:22:47;;;;;;;1.27;1.00;;;18.90;42.50;;;;;;5131415;27;45823;-79
2022/04/19 02:25:17;;;;;;;1.75;1.15;;;18.90;42.40;;;;;;5131903;27;45251;-79
2022/04/19 02:27:44;;;;;;;1.23;0.93;;;18.90;42.20;;;;;;5126444;27;45218;-79
2022/04/19 02:30:15;;;;;;;2.78;1.20;;;18.90;42.20;;;;;;5130169;27;48409;-80
2022/04/19 02:32:44;;;;;;;2.03;1.40;;;18.80;42.10;;;;;;5131831;27;45096;-79
2022/04/19 02:35:11;;;;;;;1.48;1.00;;;18.90;42.10;;;;;;5123809;27;45369;-79
2022/04/19 02:37:38;;;;;;;1.83;1.02;;;18.90;42.20;;;;;;5131418;27;45618;-79
2022/04/19 02:40:06;;;;;;;2.25;1.20;;;18.90;42.20;;;;;;5129925;27;45481;-79
2022/04/19 02:42:33;;;;;;;1.63;0.98;;;18.90;42.30;;;;;;5122263;27;45154;-79
2022/04/19 02:45:03;;;;;;;1.17;0.90;;;18.90;42.40;;;;;;5110293;27;45279;-79
2022/04/19 02:47:30;;;;;;;1.23;0.80;;;18.90;42.40;;;;;;5113173;27;45516;-79
2022/04/19 02:49:58;;;;;;;2.00;0.80;;;18.90;42.40;;;;;;5108212;27;48297;-79
2022/04/19 02:52:25;;;;;;;1.42;0.80;;;18.90;42.30;;;;;;5123497;27;45174;-79
2022/04/19 02:54:52;;;;;;;1.67;1.00;;;18.90;42.30;;;;;;5129345;27;45446;-79
2022/04/19 02:57:19;;;;;;;1.85;1.10;;;18.90;42.40;;;;;;5129175;27;45210;-79
2022/04/19 02:59:46;;;;;;;1.23;0.88;;;18.90;42.50;;;;;;5118620;27;46335;-79
2022/04/19 03:02:14;;;;;;;1.48;0.98;;;18.90;42.50;;;;;;5114818;27;45240;-80
2022/04/19 03:04:41;;;;;;;3.03;1.23;;;18.90;42.50;;;;;;5129274;27;45289;-79
2022/04/19 03:07:09;;;;;;;1.25;0.80;;;18.90;42.40;;;;;;5128830;27;45175;-79
2022/04/19 03:09:36;;;;;;;1.50;0.93;;;18.80;42.40;;;;;;5129157;27;47392;-79
2022/04/19 03:12:03;;;;;;;1.92;1.30;;;18.90;42.20;;;;;;5128446;27;45285;-80
2022/04/19 03:14:30;;;;;;;2.65;1.30;;;18.90;42.10;;;;;;5142965;27;45351;-79
2022/04/19 03:16:56;;;;;;;1.88;1.05;;;18.80;41.80;;;;;;5129623;27;45257;-80
2022/04/19 03:19:24;;;;;;;2.30;1.20;;;18.90;42.00;;;;;;5118039;27;46309;-79
2022/04/19 03:21:50;;;;;;;1.13;1.02;;;18.90;42.10;;;;;;5121343;27;45263;-79
2022/04/19 03:29:59;;;;;;;1.90;1.10;;;18.80;41.90;;;;;;5118342;27;45761;-79
2022/04/19 03:32:26;;;;;;;1.65;1.20;;;18.90;42.20;;;;;;5128341;27;45373;-79
2022/04/19 03:34:53;;;;;;;1.80;1.15;;;18.90;42.20;;;;;;5113791;27;45293;-80
2022/04/19 03:37:20;;;;;;;1.90;1.20;;;18.90;42.00;;;;;;5103994;27;119257;-80
2022/04/19 03:39:48;;;;;;;2.28;1.20;;;18.90;41.80;;;;;;5110898;27;45592;-79
2022/04/19 03:42:16;;;;;;;1.20;0.98;;;18.90;41.80;;;;;;5130329;27;45153;-79
2022/04/19 03:44:42;;;;;;;1.48;0.90;;;18.90;41.90;;;;;;5130839;27;45209;-79
2022/04/19 03:47:09;;;;;;;1.48;1.05;;;18.80;41.90;;;;;;5130614;27;45169;-79
2022/04/19 03:49:37;;;;;;;1.77;1.13;;;18.80;42.00;;;;;;5129660;27;48166;-80
2022/04/19 03:52:04;;;;;;;2.15;1.30;;;18.80;42.10;;;;;;5130226;27;45234;-79
2022/04/19 03:54:34;;;;;;;1.70;1.17;;;18.80;42.20;;;;;;5129216;27;45325;-79
2022/04/19 03:57:04;;;;;;;1.55;1.10;;;18.80;42.00;;;;;;5130644;27;45456;-79
2022/04/19 03:59:31;;;;;;;2.03;1.00;;;18.90;42.20;;;;;;5128779;27;46189;-79
2022/04/19 04:01:57;;;;;;;1.75;0.90;;;18.80;42.10;;;;;;5112788;27;45176;-79
2022/04/19 04:04:26;;;;;;;1.65;1.10;;;18.90;42.20;;;;;;5129306;27;45202;-79
2022/04/19 04:06:53;;;;;;;2.15;1.23;;;18.80;42.20;;;;;;5128650;27;45519;-79
2022/04/19 04:09:19;;;;;;;1.92;1.13;;;18.90;42.30;;;;;;5113038;27;46205;-79
2022/04/19 04:11:46;;;;;;;2.95;1.08;;;18.90;42.20;;;;;;5106955;27;45452;-79
2022/04/19 04:14:14;;;;;;;1.30;1.00;;;18.90;42.20;;;;;;5109787;27;45212;-79
2022/04/19 04:16:41;;;;;;;1.40;1.17;;;18.80;42.20;;;;;;5119696;27;45916;-79
2022/04/19 04:19:08;;;;;;;1.92;1.45;;;18.90;42.20;;;;;;5121089;27;45647;-79
2022/04/19 04:21:35;;;;;;;1.30;1.15;;;18.90;42.10;;;;;;5126568;27;45401;-79
2022/04/19 04:24:02;;;;;;;1.48;1.10;;;18.80;42.00;;;;;;5131445;27;45289;-79
2022/04/19 04:26:28;;;;;;;2.15;1.10;;;18.80;42.20;;;;;;5135126;27;45177;-79
2022/04/19 04:28:55;;;;;;;2.17;1.27;;;18.80;42.20;;;;;;5136511;27;47501;-79
2022/04/19 04:31:23;;;;;;;2.47;1.13;;;18.80;42.20;;;;;;5123598;27;45176;-79
2022/04/19 04:33:50;;;;;;;1.60;1.20;;;18.80;42.20;;;;;;5108756;27;45132;-79
2022/04/19 04:36:19;;;;;;;1.63;1.05;;;18.80;42.20;;;;;;5116730;27;45444;-79
2022/04/19 04:38:46;;;;;;;3.30;1.45;;;18.80;42.30;;;;;;5128990;27;45307;-79
2022/04/19 04:41:12;;;;;;;3.05;1.08;;;18.80;42.40;;;;;;5127934;27;45319;-79
2022/04/19 04:43:39;;;;;;;1.92;1.45;;;18.80;42.30;;;;;;5118050;27;45492;-79
2022/04/19 04:51:36;;;;;;;1.55;0.95;;;18.80;42.50;;;;;;5121749;27;45387;-79
2022/04/19 04:54:03;;;;;;;1.75;1.20;;;18.80;42.50;;;;;;5126084;27;45302;-79
2022/04/19 04:56:30;;;;;;;2.83;1.40;;;18.80;42.50;;;;;;5117894;27;45162;-79
2022/04/19 04:58:56;;;;;;;2.03;1.20;;;18.80;42.50;;;;;;5125614;27;46555;-79
2022/04/19 05:01:23;;;;;;;1.70;1.17;;;18.70;42.30;;;;;;5129514;27;45258;-79
2022/04/19 05:03:51;;;;;;;1.90;1.20;;;18.70;42.40;;;;;;5122439;27;45199;-80
2022/04/19 05:06:18;;;;;;;1.98;1.08;;;18.70;42.30;;;;;;5128476;27;45464;-79
2022/04/19 05:08:45;;;;;;;2.03;1.40;;;18.70;42.50;;;;;;5115301;27;45973;-79
2022/04/19 05:11:12;;;;;;;2.67;1.50;;;18.70;42.60;;;;;;5123443;27;45679;-79
2022/04/19 05:13:39;;;;;;;2.55;1.50;;;18.70;42.70;;;;;;5119844;27;45301;-79
2022/04/19 05:16:05;;;;;;;2.40;1.42;;;18.70;42.90;;;;;;5109667;27;45232;-78
2022/04/19 05:18:32;;;;;;;1.73;1.20;;;18.70;43.20;;;;;;5112152;27;45305;-78
2022/04/19 05:21:01;;;;;;;2.20;1.55;;;18.70;42.70;;;;;;5108682;27;45281;-78
2022/04/19 05:23:27;;;;;;;1.85;1.42;;;18.70;42.20;;;;;;5128462;27;45167;-78
2022/04/19 05:25:54;;;;;;;21.17;2.60;;;18.70;41.70;;;;;;5125093;27;45251;-76
2022/04/19 05:28:21;;;;;;;16.67;1.80;;;18.80;42.80;;;;;;5121312;27;45473;-77
2022/04/19 05:30:48;;;;;;;20.23;2.17;;;18.80;42.60;;;;;;5124764;27;45240;-77
2022/04/19 05:33:15;;;;;;;8.00;1.85;;;18.80;41.80;;;;;;5112651;27;45256;-77
2022/04/19 05:35:41;;;;;;;7.88;2.25;;;18.80;41.80;;;;;;5111437;27;45696;-78
2022/04/19 05:38:10;;;;;;;5.88;1.63;;;18.80;41.50;;;;;;5129424;27;45289;-77
2022/04/19 05:40:40;;;;;;;4.53;1.80;;;18.80;41.40;;;;;;5125281;27;45885;-78
2022/04/19 05:43:06;;;;;;;2.58;1.45;;;18.70;41.30;;;;;;5114342;27;45349;-78
2022/04/19 05:45:33;;;;;;;4.78;1.80;;;18.70;41.40;;;;;;5124048;27;45144;-76
2022/04/19 05:48:01;;;;;;;3.30;2.00;;;18.70;41.50;;;;;;5125315;27;45997;-75
2022/04/19 05:50:27;;;;;;;3.72;1.77;;;18.70;41.90;;;;;;5116386;27;45281;-76
2022/04/19 05:52:54;;;;;;;3.05;1.55;;;18.70;42.50;;;;;;5122469;27;45474;-76
2022/04/19 05:55:23;;;;;;;3.00;1.77;;;18.70;42.90;;;;;;5128572;27;45341;-75
2022/04/19 05:57:50;;;;;;;3.92;1.42;;;18.70;43.20;;;;;;5126074;27;46500;-77
2022/04/19 06:00:18;;;;;;;3.17;1.60;;;18.70;43.30;;;;;;5119204;27;45638;-77
2022/04/19 06:05:28;;;;;;;3.28;1.63;;;18.70;43.70;;;;;;5115184;27;45284;-77
2022/04/19 06:07:55;;;;;;;4.72;1.60;;;18.70;43.70;;;;;;5121606;27;46167;-77
2022/04/19 06:10:23;;;;;;;4.35;1.40;;;18.70;43.70;;;;;;5114191;27;45332;-77
2022/04/19 06:12:50;;;;;;;2.00;1.23;;;18.80;43.90;;;;;;5108734;27;45261;-77
2022/04/19 06:15:17;;;;;;;3.08;1.60;;;18.80;43.90;;;;;;5115259;27;45439;-77
2022/04/19 06:17:44;;;;;;;3.40;1.90;;;18.80;44.00;;;;;;5128264;27;45323;-78
2022/04/19 06:20:12;;;;;;;5.00;1.73;;;18.90;44.00;;;;;;5111996;27;45506;-77
2022/04/19 06:22:39;;;;;;;2.88;1.60;;;18.90;44.20;;;;;;5128671;27;45216;-77
2022/04/19 06:25:07;;;;;;;2.17;1.52;;;18.90;45.30;;;;;;5127806;27;45689;-77
2022/04/19 06:27:35;;;;;;;2.28;1.45;;;18.80;44.20;;;;;;5127749;27;47970;-78
2022/04/19 06:30:03;;;;;;;2.60;1.50;;;18.90;44.20;;;;;;5117828;27;45702;-78
2022/04/19 06:32:30;;;;;;;3.30;1.80;;;18.80;44.20;;;;;;5108819;27;45314;-78
2022/04/19 06:34:56;;;;;;;2.20;1.60;;;18.80;44.20;;;;;;5113166;27;45190;-77
2022/04/19 06:37:23;;;;;;;3.40;1.77;;;18.80;44.30;;;;;;5120422;27;47840;-77
2022/04/19 06:39:50;;;;;;;2.50;1.40;;;18.80;44.30;;;;;;5120772;27;45277;-77
2022/04/19 06:42:17;;;;;;;2.30;1.42;;;18.80;44.30;;;;;;5125521;27;45172;-75
2022/04/19 06:44:45;;;;;;;2.80;1.50;;;18.80;45.70;;;;;;5124973;27;45191;-78
2022/04/19 06:47:12;;;;;;;4.63;1.52;;;18.80;44.60;;;;;;5125273;27;46620;-77
2022/04/19 06:49:39;;;;;;;2.92;1.73;;;18.80;44.70;;;;;;5120846;27;45464;-78
2022/04/19 06:52:08;;;;;;;4.53;1.85;;;18.80;44.70;;;;;;5127009;27;45359;-76
2022/04/19 06:54:34;;;;;;;2.17;1.40;;;18.90;44.80;;;;;;5115574;27;45519;-77
2022/04/19 06:57:01;;;;;;;2.60;1.70;;;18.90;44.90;;;;;;5127290;27;45431;-78
2022/04/19 06:59:28;;;;;;;3.15;1.75;;;18.90;44.90;;;;;;5119385;27;46026;-78
2022/04/19 07:01:56;;;;;;;2.10;1.27;;;18.90;44.90;;;;;;5124240;27;45258;-78
2022/04/19 07:04:23;;;;;;;2.65;1.60;;;19.00;44.90;;;;;;5125471;27;45504;-77
2022/04/19 07:06:51;;;;;;;2.33;1.50;;;19.20;45.30;;;;;;5118786;27;46215;-78
2022/04/19 07:09:18;;;;;;;2.50;1.17;;;19.00;45.10;;;;;;5119334;27;45174;-77
2022/04/19 07:11:45;;;;;;;2.20;1.42;;;19.00;45.00;;;;;;5127007;27;45262;-77
2022/04/19 07:14:11;;;;;;;2.17;1.60;;;19.00;45.10;;;;;;5127542;27;45495;-77
2022/04/19 07:16:38;;;;;;;3.72;1.80;;;19.00;45.00;;;;;;5129658;27;47127;-78
2022/04/19 07:19:06;;;;;;;2.20;1.65;;;19.00;45.10;;;;;;5127914;27;45136;-78
2022/04/19 07:26:59;;;;;;;5.85;1.92;;;19.00;45.10;;;;;;5106534;27;46043;-78
2022/04/19 07:29:26;;;;;;;2.78;1.50;;;19.00;45.20;;;;;;5128247;27;45312;-77
2022/04/19 07:31:53;;;;;;;2.67;1.70;;;19.00;45.20;;;;;;5124365;27;45338;-78
2022/04/19 07:34:21;;;;;;;2.42;1.48;;;19.00;45.30;;;;;;5118043;27;45321;-78
2022/04/19 07:36:48;;;;;;;3.17;1.63;;;19.00;45.40;;;;;;5130296;27;45271;-78
2022/04/19 07:39:15;;;;;;;4.55;1.77;;;19.00;45.50;;;;;;5128967;27;45186;-78
2022/04/19 07:41:45;;;;;;;2.85;1.70;;;19.00;45.40;;;;;;5128102;27;45240;-78
2022/04/19 07:44:11;;;;;;;2.90;1.65;;;19.00;45.50;;;;;;5126969;27;45212;-78
2022/04/19 07:46:38;;;;;;;2.88;1.63;;;19.00;45.40;;;;;;5130167;27;46611;-78
2022/04/19 07:49:05;;;;;;;2.28;1.55;;;19.10;45.40;;;;;;5123012;27;45149;-78
2022/04/19 07:51:35;;;;;;;3.90;1.80;;;19.10;46.60;;;;;;5125150;27;45334;-78
2022/04/19 07:54:02;;;;;;;3.45;1.70;;;19.10;45.30;;;;;;5129112;27;45245;-78
2022/04/19 07:56:29;;;;;;;2.38;1.55;;;19.10;45.20;;;;;;5122395;27;46299;-78
2022/04/19 07:58:55;;;;;;;3.00;1.70;;;19.10;45.50;;;;;;5131161;27;45592;-78
2022/04/19 08:01:23;;;;;;;1.95;1.45;;;19.10;45.40;;;;;;5142269;27;45123;-77
2022/04/19 08:03:50;;;;;;;3.28;1.80;;;19.10;45.40;;;;;;5125699;27;45174;-78
2022/04/19 08:06:17;;;;;;;3.47;1.90;;;19.10;45.40;;;;;;5126803;27;45496;-78
2022/04/19 08:08:45;;;;;;;2.53;1.60;;;19.10;45.40;;;;;;5126868;27;45232;-79
2022/04/19 08:11:11;;;;;;;3.08;1.67;;;19.10;45.30;;;;;;5122164;27;45359;-77
2022/04/19 08:13:38;;;;;;;3.55;1.77;;;19.10;45.40;;;;;;5128099;27;45460;-78
2022/04/19 08:16:08;;;;;;;4.50;2.05;;;19.10;45.40;;;;;;5125816;27;46665;-77
2022/04/19 08:18:35;;;;;;;3.13;1.92;;;19.10;44.90;;;;;;5125891;27;45198;-77
2022/04/19 08:21:02;;;;;;;4.00;1.83;;;19.10;44.90;;;;;;5128837;27;45176;-77
2022/04/19 08:23:29;;;;;;;4.38;2.28;;;19.10;45.00;;;;;;5129526;27;45425;-77
2022/04/19 08:25:57;;;;;;;3.42;1.90;;;19.10;45.00;;;;;;5126894;27;46898;-77
2022/04/19 08:28:24;;;;;;;2.90;1.85;;;19.10;45.20;;;;;;5127230;27;45578;-77
2022/04/19 08:30:51;;;;;;;2.53;1.65;;;19.10;45.00;;;;;;5122909;27;45337;-78
2022/04/19 08:33:18;;;;;;;4.53;2.28;;;19.10;44.90;;;;;;5122205;27;45266;-77
2022/04/19 08:35:45;;;;;;;3.35;1.55;;;19.10;44.80;;;;;;5127847;27;45298;-77
2022/04/19 08:38:12;;;;;;;3.40;2.10;;;19.10;44.40;;;;;;5121822;27;45182;-78
2022/04/19 08:40:39;;;;;;;4.43;1.75;;;19.20;44.60;;;;;;5127628;27;45501;-77
2022/04/19 08:43:07;;;;;;;2.90;1.70;;;19.20;44.70;;;;;;5120052;27;45208;-77
2022/04/19 08:45:33;;;;;;;3.88;2.05;;;19.20;44.60;;;;;;5127388;27;46197;-77
2022/04/19 08:48:01;;;;;;;3.13;1.63;;;19.10;44.10;;;;;;5126572;27;45225;-76
2022/04/19 08:50:30;;;;;;;1.95;1.50;;;19.10;44.40;;;;;;5121746;27;45324;-77
2022/04/19 08:58:23;;;;;;;2.50;1.67;;;19.10;43.90;;;;;;5102952;27;45568;-77
2022/04/19 09:00:50;;;;;;;3.42;1.55;;;19.10;43.80;;;;;;5124865;27;45262;-77
2022/04/19 09:03:20;;;;;;;3.00;1.65;;;19.00;43.90;;;;;;5126680;27;45155;-77
2022/04/19 09:05:51;;;;;;;2.13;1.52;;;19.00;43.90;;;;;;5128338;27;45574;-77
2022/04/19 09:08:19;;;;;;;1.90;1.52;;;19.00;43.70;;;;;;5130240;27;45230;-75
2022/04/19 09:10:46;;;;;;;2.85;1.67;;;19.00;43.90;;;;;;5129462;27;45164;-77
2022/04/19 09:13:14;;;;;;;2.78;1.60;;;19.10;43.60;;;;;;5126506;27;45225;-77
2022/04/19 09:15:44;;;;;;;3.53;1.77;;;19.10;43.60;;;;;;5127776;27;46539;-77
2022/04/19 09:18:15;;;;;;;2.60;1.60;;;19.10;43.10;;;;;;5128680;27;45404;-77
2022/04/19 09:20:42;;;;;;;2.80;1.55;;;19.10;43.30;;;;;;5120831;27;45295;-77
2022/04/19 09:23:11;;;;;;;4.47;1.80;;;19.20;43.40;;;;;;5126131;27;45185;-78
2022/04/19 09:25:39;;;;;;;2.40;1.40;;;19.20;43.30;;;;;;5127910;27;45297;-78
2022/04/19 09:28:17;;;;;;;2.97;1.77;;;19.20;43.40;;;;;;5119099;27;45628;-77
2022/04/19 09:30:48;;;;;;;3.55;1.58;;;19.20;42.90;;;;;;5120836;27;45288;-77
2022/04/19 09:33:17;;;;;;;2.25;1.25;;;19.30;42.70;;;;;;5124206;27;45301;-77
2022/04/19 09:35:47;;;;;;;2.35;1.50;;;19.30;42.60;;;;;;5120879;27;48000;-78
2022/04/19 09:38:15;;;;;;;2.20;1.45;;;19.30;42.50;;;;;;5128283;27;45251;-78
2022/04/19 09:40:43;;;;;;;3.00;1.77;;;19.30;42.60;;;;;;5127696;27;45192;-78
2022/04/19 09:43:12;;;;;;;2.85;1.85;;;19.30;42.50;;;;;;5123160;27;45148;-78
2022/04/19 09:45:52;;;;;;;2.30;1.70;;;19.30;42.20;;;;;;5125076;27;46600;-78
2022/04/19 09:48:20;;;;;;;2.28;1.67;;;19.30;43.20;;;;;;5120915;27;45461;-78
2022/04/19 09:50:51;;;;;;;3.45;1.77;;;19.30;42.10;;;;;;5124858;27;46417;-78
2022/04/19 09:53:19;;;;;;;1.98;1.30;;;19.30;41.90;;;;;;5126937;27;45167;-77
2022/04/19 09:55:48;;;;;;;3.35;1.60;;;19.30;42.00;;;;;;5126218;27;45488;-78
2022/04/19 09:58:16;;;;;;;2.38;1.58;;;19.30;42.20;;;;;;5125431;27;45252;-78
2022/04/19 10:00:44;;;;;;;2.45;1.80;;;19.30;42.20;;;;;;5127520;27;45721;-77
2022/04/19 10:08:54;;;;;;;2.10;1.38;;;19.30;42.10;;;;;;5128849;27;45698;-77
2022/04/19 10:11:21;;;;;;;3.05;1.65;;;19.30;42.20;;;;;;5129017;27;45487;-78
2022/04/19 10:13:50;;;;;;;2.22;1.58;;;19.30;42.30;;;;;;5131180;27;45256;-78
2022/04/19 10:16:17;;;;;;;3.05;1.60;;;19.20;42.00;;;;;;5128181;27;45249;-78
2022/04/19 10:18:46;;;;;;;3.22;1.67;;;19.20;41.90;;;;;;5130601;27;45371;-78
2022/04/19 10:21:17;;;;;;;2.42;1.60;;;19.20;42.20;;;;;;5127387;27;45562;-78
2022/04/19 10:23:44;;;;;;;3.80;1.33;;;19.20;42.20;;;;;;5130683;27;45249;-78
2022/04/19 10:26:19;;;;;;;2.03;1.50;;;19.20;42.00;;;;;;5130745;27;48092;-77
2022/04/19 10:28:47;;;;;;;2.78;1.58;;;19.30;41.80;;;;;;5129046;27;45255;-78
2022/04/19 10:31:14;;;;;;;2.13;1.35;;;19.30;41.90;;;;;;5130341;27;45708;-77
2022/04/19 10:33:48;;;;;;;3.63;1.25;;;19.30;42.30;;;;;;5125070;27;45437;-78
2022/04/19 10:36:17;;;;;;;1.55;1.10;;;19.20;42.30;;;;;;5130117;27;48035;-77
2022/04/19 10:38:44;;;;;;;1.95;1.38;;;19.20;42.40;;;;;;5122382;27;45975;-77
2022/04/19 10:41:11;;;;;;;3.17;1.58;;;19.30;42.30;;;;;;5127882;27;45218;-77
2022/04/19 10:43:38;;;;;;;1.92;1.35;;;19.30;42.20;;;;;;5130511;27;45171;-77
2022/04/19 10:46:27;;;;;;;2.78;1.58;;;19.30;41.90;;;;;;5130411;27;46705;-77
2022/04/19 10:49:25;;;;;;;1.73;1.38;;;19.30;41.90;;;;;;5122253;27;45319;-77
2022/04/19 10:51:59;;;;;;;2.35;1.40;;;19.30;41.40;;;;;;5127116;27;45310;-77
2022/04/19 10:55:06;;;;;;;2.25;1.58;;;19.30;41.60;;;;;;5131842;27;45650;-77
2022/04/19 11:00:27;;;;;;;1.70;1.25;;;19.20;41.40;;;;;;5118766;27;45337;-77
2022/04/19 11:02:59;;;;;;;1.25;1.10;;;19.20;41.40;;;;;;5126989;27;45355;-77
2022/04/19 11:05:41;;;;;;;2.30;1.30;;;19.20;41.30;;;;;;5126937;27;45282;-77
2022/04/19 11:08:21;;;;;;;1.58;1.17;;;19.20;41.00;;;;;;5128337;27;45504;-77
2022/04/19 11:10:48;;;;;;;2.30;1.42;;;19.20;41.30;;;;;;5128892;27;45147;-77
2022/04/19 11:13:15;;;;;;;1.67;1.10;;;19.20;41.20;;;;;;5130116;27;45183;-77
2022/04/19 11:15:43;;;;;;;1.90;1.20;;;19.20;41.00;;;;;;5130859;27;47341;-77
2022/04/19 11:18:24;;;;;;;1.90;1.30;;;19.20;41.10;;;;;;5128551;27;47058;-77
2022/04/19 11:20:53;;;;;;;1.45;1.13;;;19.20;41.20;;;;;;5116956;27;45636;-77
2022/04/19 11:23:21;;;;;;;1.00;0.82;;;19.20;41.30;;;;;;5127258;27;45295;-77
2022/04/19 11:25:49;;;;;;;2.78;1.15;;;19.20;41.20;;;;;;5130770;27;45185;-77
2022/04/19 11:28:21;;;;;;;2.33;0.98;;;19.20;40.90;;;;;;5124295;27;47983;-77
2022/04/19 11:31:12;;;;;;;1.23;0.73;;;19.20;40.90;;;;;;5132934;27;45624;-77
2022/04/19 11:33:39;;;;;;;1.35;0.95;;;19.20;42.00;;;;;;5126080;27;45172;-76
2022/04/19 11:36:09;;;;;;;1.77;1.00;;;19.20;40.90;;;;;;5130119;27;45353;-77
2022/04/19 11:38:40;;;;;;;1.25;0.95;;;19.20;40.90;;;;;;5129273;27;46172;-77
2022/04/19 11:46:45;;;;;;;1.73;0.90;;;19.20;41.30;;;;;;5124388;27;45234;-77
2022/04/19 11:49:23;;;;;;;1.50;0.95;;;19.20;41.40;;;;;;5125756;27;45553;-77
2022/04/19 11:51:54;;;;;;;1.60;1.10;;;19.20;41.00;;;;;;5122178;27;45266;-76
2022/04/19 11:54:22;;;;;;;2.58;0.77;;;19.20;40.80;;;;;;5119659;27;45297;-76
2022/04/19 11:56:51;;;;;;;1.30;1.10;;;19.20;41.00;;;;;;5130464;27;45335;-76
2022/04/19 11:59:18;;;;;;;1.17;1.00;;;19.10;41.20;;;;;;5127015;27;47098;-76
2022/04/19 12:01:49;;;;;;;1.08;0.95;;;19.10;41.40;;;;;;5124331;27;45458;-76
2022/04/19 12:04:16;;;;;;;1.67;0.93;;;19.10;41.70;;;;;;5124058;27;45316;-76
2022/04/19 12:06:47;;;;;;;1.40;0.90;;;19.10;41.70;;;;;;5124149;27;45733;-76
2022/04/19 12:09:17;;;;;;;0.80;0.70;;;19.10;41.70;;;;;;5109372;27;45396;-76
2022/04/19 12:11:45;;;;;;;1.85;0.90;;;19.10;41.70;;;;;;5111536;27;45225;-76
2022/04/19 12:14:23;;;;;;;1.08;0.73;;;19.10;41.80;;;;;;5130234;27;45237;-76
2022/04/19 12:16:59;;;;;;;2.90;1.05;;;19.10;41.70;;;;;;5128700;27;45204;-78
2022/04/19 12:19:38;;;;;;;7.63;1.20;;;19.10;43.70;;;;;;5117288;27;47488;-76
2022/04/19 12:22:18;;;;;;;56.30;4.10;;;19.20;45.20;;;;;;5109616;27;45198;-75
2022/04/19 12:24:48;;;;;;;11.23;1.67;;;19.30;46.60;;;;;;5125760;27;45609;-74
2022/04/19 12:27:15;;;;;;;5.13;1.73;;;19.40;46.20;;;;;;5125434;27;45470;-74
2022/04/19 12:30:01;;;;;;;7.63;1.38;;;19.60;46.00;;;;;;5115026;27;47128;-74
2022/04/19 12:32:49;;;;;;;10.88;1.20;;;19.80;46.10;;;;;;5127384;27;45256;-74
2022/04/19 12:35:17;;;;;;;3.83;1.20;;;20.20;46.50;;;;;;5123671;27;45512;-74
2022/04/19 12:37:44;;;;;;;9.25;1.77;;;20.40;46.40;;;;;;5127182;27;45601;-76
2022/04/19 12:40:12;;;;;;;2.78;0.80;;;20.60;46.80;;;;;;5128571;27;45232;-74
2022/04/19 12:42:50;;;;;;;2.70;1.10;;;20.90;47.20;;;;;;5124267;27;45417;-74
2022/04/19 12:45:18;;;;;;;1.58;1.10;;;21.00;47.70;;;;;;5128005;27;45194;-74
2022/04/19 12:47:48;;;;;;;1.73;0.85;;;21.30;47.90;;;;;;5121627;27;45261;-74
2022/04/19 12:50:17;;;;;;;1.95;1.10;;;21.30;48.80;;;;;;5124362;27;46603;-74
2022/04/19 12:52:45;;;;;;;2.60;1.13;;;21.50;47.40;;;;;;5123118;27;45356;-74
2022/04/19 12:55:13;;;;;;;2.33;1.00;;;21.50;47.90;;;;;;5129308;27;45345;-74
2022/04/19 12:57:42;;;;;;;2.30;1.10;;;21.70;48.10;;;;;;5123003;27;45233;-75
2022/04/19 13:00:10;;;;;;;4.97;1.20;;;21.70;48.10;;;;;;5120006;27;45289;-75
2022/04/19 13:02:38;;;;;;;1.83;1.15;;;21.80;48.50;;;;;;5124268;27;45367;-75
2022/04/19 13:05:05;;;;;;;2.30;1.00;;;21.80;48.20;;;;;;5126982;27;45163;-74
2022/04/19 13:13:03;;;;;;;4.80;1.45;;;21.50;47.00;;;;;;5126189;27;45186;-75
2022/04/19 13:15:32;;;;;;;6.80;1.40;;;21.30;46.80;;;;;;5128972;27;45193;-74
2022/04/19 13:17:59;;;;;;;5.35;1.40;;;20.80;46.50;;;;;;5122231;27;45490;-74
2022/04/19 13:20:26;;;;;;;5.55;1.50;;;20.50;46.80;;;;;;5120026;27;45413;-74
2022/04/19 13:22:52;;;;;;;2.05;1.00;;;20.30;46.80;;;;;;5120018;27;45852;-74
2022/04/19 13:25:21;;;;;;;3.38;1.05;;;20.10;47.30;;;;;;5127782;27;45154;-74
2022/04/19 13:27:48;;;;;;;2.50;1.30;;;20.00;47.00;;;;;;5119383;27;45623;-74
2022/04/19 13:30:16;;;;;;;3.67;1.30;;;19.90;47.50;;;;;;5126147;27;45233;-74
2022/04/19 13:32:43;;;;;;;4.95;1.42;;;19.80;47.80;;;;;;5126809;27;46523;-75
2022/04/19 13:35:11;;;;;;;2.55;1.02;;;19.80;47.50;;;;;;5122005;27;45316;-74
2022/04/19 13:40:24;;;;;;;4.78;1.08;;;19.70;48.10;;;;;;5125986;27;45659;-74